Time;durP1;ratioP1;P1;durP2;ratioP2;P2;SDS_P1;SDS_P2;PMS_P1;PMS_P2;Temp;Humidity;BMP_temperature;BMP_pressure;BME280_temperature;BME280_humidity;BME280_pressure;Samples;Min_cycle;Max_cycle;Signal;HPM_P1;HPM_P2
2023/04/05 00:00:10;;;;;;;;;19.25;16.75;;;;;10.29;40.95;101915.97;5093419;27;45483;-69
2023/04/05 00:02:39;;;;;;;;;27.25;19.00;;;;;10.35;40.98;101921.38;5097660;27;45628;-70
2023/04/05 00:05:06;;;;;;;;;21.75;17.50;;;;;10.42;40.34;101924.97;5096728;27;45505;-69
2023/04/05 00:07:33;;;;;;;;;20.25;18.75;;;;;10.40;40.64;101920.59;5080258;27;45402;-69
2023/04/05 00:09:59;;;;;;;;;23.50;19.75;;;;;10.43;40.55;101921.53;5076057;27;45622;-68
2023/04/05 00:12:25;;;;;;;;;21.50;17.25;;;;;10.39;40.68;101912.69;5081007;27;45381;-71
2023/04/05 00:14:50;;;;;;;;;20.50;17.25;;;;;10.51;42.41;101925.19;5085203;27;45362;-69
2023/04/05 00:17:16;;;;;;;;;21.25;18.00;;;;;10.55;41.23;101927.91;5081373;27;46486;-67
2023/04/05 00:19:43;;;;;;;;;21.50;19.25;;;;;10.57;41.45;101930.56;5089925;27;45635;-67
2023/04/05 00:22:09;;;;;;;;;24.50;18.75;;;;;10.51;40.75;101913.00;5076524;27;45454;-67
2023/04/05 00:24:37;;;;;;;;;22.75;19.50;;;;;10.58;41.20;101927.97;5076511;27;45488;-69
2023/04/05 00:27:04;;;;;;;;;25.75;20.50;;;;;10.57;41.49;101928.81;5057794;28;46751;-69
2023/04/05 00:29:30;;;;;;;;;18.50;17.50;;;;;10.57;41.32;101918.34;5083704;27;45788;-67
2023/04/05 00:31:55;;;;;;;;;22.50;20.00;;;;;10.58;41.55;101914.88;5086290;27;45616;-67
2023/04/05 00:34:21;;;;;;;;;23.25;18.00;;;;;10.56;41.05;101920.94;5069120;27;45473;-69
2023/04/05 00:36:48;;;;;;;;;21.50;17.00;;;;;10.59;40.94;101921.88;5093042;27;46388;-66
2023/04/05 00:39:13;;;;;;;;;19.75;14.75;;;;;10.50;41.12;101905.97;5066769;27;45467;-68
2023/04/05 00:41:39;;;;;;;;;20.00;17.00;;;;;10.51;40.92;101905.13;5077687;27;45801;-68
2023/04/05 00:44:06;;;;;;;;;21.00;18.75;;;;;10.52;40.91;101900.78;5079507;27;45413;-68
2023/04/05 00:46:36;;;;;;;;;22.50;17.00;;;;;10.58;40.96;101924.44;5079284;27;46121;-68
2023/04/05 00:49:03;;;;;;;;;20.75;19.25;;;;;10.54;41.02;101912.16;5057672;28;45552;-66
2023/04/05 00:51:32;;;;;;;;;23.50;20.00;;;;;10.57;40.99;101918.34;5070803;27;45527;-67
2023/04/05 00:53:59;;;;;;;;;19.50;17.50;;;;;10.54;40.86;101918.28;5098812;27;45361;-65
2023/04/05 00:56:27;;;;;;;;;18.75;14.00;;;;;10.45;40.74;101894.50;5096723;27;46152;-70
2023/04/05 00:58:52;;;;;;;;;24.75;19.50;;;;;10.50;40.97;101913.81;5099716;27;45347;-66
2023/04/05 01:01:21;;;;;;;;;23.50;20.25;;;;;10.52;40.53;101912.13;5077683;27;45655;-65
2023/04/05 01:04:10;;;;;;;;;20.50;16.75;;;;;10.47;40.97;101911.16;5078674;27;45528;-66
2023/04/05 01:06:56;;;;;;;;;18.25;17.00;;;;;10.46;41.20;101911.97;5094879;27;48038;-67
2023/04/05 01:09:25;;;;;;;;;20.00;17.00;;;;;10.42;41.11;101910.19;5099556;27;45536;-66
2023/04/05 01:11:55;;;;;;;;;21.00;17.00;;;;;10.38;41.14;101900.47;5096011;27;45518;-66
2023/04/05 01:14:21;;;;;;;;;18.25;14.75;;;;;10.37;41.15;101906.56;5096386;27;45399;-66
2023/04/05 01:16:48;;;;;;;;;10.75;7.75;;;;;10.36;41.36;101892.56;5097946;27;46373;-66
2023/04/05 01:19:15;;;;;;;;;18.00;16.00;;;;;10.34;41.42;101894.28;5078413;27;45432;-68
2023/04/05 01:22:16;;;;;;;;;23.00;19.00;;;;;10.27;41.60;101900.19;5078181;27;45547;-66
2023/04/05 01:25:13;;;;;;;;;20.25;20.25;;;;;10.21;41.37;101892.22;5061617;27;45499;-67
2023/04/05 01:27:57;;;;;;;;;19.25;16.25;;;;;10.11;41.61;101891.13;5090064;27;46044;-68
2023/04/05 01:30:35;;;;;;;;;23.25;17.75;;;;;10.13;41.51;101884.22;5078481;27;45575;-66
2023/04/05 01:33:30;;;;;;;;;18.75;17.50;;;;;9.97;41.45;101855.91;5078556;27;45401;-67
2023/04/05 01:36:15;;;;;;;;;22.00;19.25;;;;;10.05;41.59;101882.25;5069449;27;45402;-66
2023/04/05 01:38:45;;;;;;;;;18.50;17.00;;;;;10.07;41.29;101875.31;5100356;27;45446;-66
2023/04/05 01:41:11;;;;;;;;;16.50;14.25;;;;;9.98;41.88;101860.28;5096503;27;45748;-67
2023/04/05 01:43:36;;;;;;;;;20.25;17.25;;;;;9.93;41.98;101878.50;5084351;27;45520;-69
2023/04/05 01:46:02;;;;;;;;;18.75;16.00;;;;;9.75;41.89;101873.75;5085270;27;45828;-67
2023/04/05 01:48:27;;;;;;;;;21.50;18.50;;;;;9.67;42.37;101861.31;5059059;28;45393;-69
2023/04/05 01:50:53;;;;;;;;;18.75;16.00;;;;;9.61;42.13;101864.69;5062168;27;45417;-68
2023/04/05 01:53:19;;;;;;;;;18.25;17.50;;;;;9.66;42.26;101870.91;5076047;27;45702;-68
2023/04/05 01:55:44;;;;;;;;;26.00;18.50;;;;;9.64;42.18;101871.72;5077294;27;45518;-66
2023/04/05 01:58:10;;;;;;;;;19.00;17.00;;;;;9.58;42.38;101867.22;5076813;27;46765;-67
2023/04/05 02:00:35;;;;;;;;;21.25;18.50;;;;;9.59;42.16;101868.13;5097737;27;45507;-68
2023/04/05 02:03:01;;;;;;;;;20.25;17.75;;;;;9.61;42.22;101869.91;5080779;27;45455;-68
2023/04/05 02:05:26;;;;;;;;;19.25;16.75;;;;;9.57;42.29;101868.06;5098579;27;45456;-69
2023/04/05 02:07:52;;;;;;;;;21.00;18.00;;;;;9.48;42.15;101850.41;5099111;27;45973;-70
2023/04/05 02:10:19;;;;;;;;;23.25;17.75;;;;;9.45;41.93;101855.56;5081362;27;45361;-68
2023/04/05 02:12:45;;;;;;;;;17.75;17.50;;;;;9.39;42.34;101862.38;5098021;27;45431;-69
2023/04/05 02:15:11;;;;;;;;;16.50;16.00;;;;;9.26;41.95;101840.28;5095315;27;45766;-69
2023/04/05 02:17:44;;;;;;;;;21.00;17.50;;;;;9.24;42.31;101842.84;5095035;27;46632;-68
2023/04/05 02:20:11;;;;;;;;;19.25;17.50;;;;;9.26;42.45;101851.63;5094830;27;45488;-68
2023/04/05 02:22:38;;;;;;;;;24.25;19.00;;;;;9.16;42.37;101840.88;5095899;27;45361;-66
2023/04/05 02:25:07;;;;;;;;;21.00;18.25;;;;;9.02;42.55;101844.03;5097705;27;45441;-68
2023/04/05 02:27:33;;;;;;;;;19.50;17.25;;;;;9.07;42.55;101837.19;5095007;27;46232;-68
2023/04/05 02:29:59;;;;;;;;;21.50;19.75;;;;;9.03;42.96;101837.06;5094939;27;45493;-67
2023/04/05 02:32:24;;;;;;;;;22.00;18.00;;;;;8.93;42.88;101835.09;5095003;27;45466;-66
2023/04/05 02:34:51;;;;;;;;;23.50;18.25;;;;;8.87;43.21;101822.72;5094872;27;45356;-67
2023/04/05 02:37:18;;;;;;;;;16.75;14.00;;;;;8.98;42.74;101830.84;5094670;27;45746;-66
2023/04/05 02:39:44;;;;;;;;;20.75;17.25;;;;;8.96;42.84;101835.16;5096387;27;45410;-68
2023/04/05 02:42:09;;;;;;;;;25.00;17.75;;;;;9.06;42.81;101829.31;5077954;27;45465;-68
2023/04/05 02:44:35;;;;;;;;;21.00;16.75;;;;;9.15;43.30;101831.28;5094531;27;45413;-67
2023/04/05 02:47:01;;;;;;;;;19.50;15.25;;;;;9.26;42.06;101835.94;5092797;27;46618;-66
2023/04/05 02:49:27;;;;;;;;;17.75;17.00;;;;;9.30;42.17;101829.03;5092256;27;45403;-68
2023/04/05 02:51:54;;;;;;;;;19.00;17.75;;;;;9.40;42.52;101835.41;5086544;27;45687;-68
2023/04/05 02:54:20;;;;;;;;;24.50;18.25;;;;;9.42;42.54;101825.84;5091544;27;45991;-69
2023/04/05 02:56:46;;;;;;;;;18.75;16.25;;;;;9.48;42.52;101823.38;5091797;27;46401;-68
2023/04/05 02:59:12;;;;;;;;;16.75;14.75;;;;;9.50;42.11;101830.41;5082502;27;45569;-67
2023/04/05 03:01:42;;;;;;;;;22.00;17.75;;;;;9.48;42.86;101832.09;5087946;27;45542;-67
2023/04/05 03:04:11;;;;;;;;;16.00;14.50;;;;;9.35;42.43;101817.00;5094787;27;45459;-68
2023/04/05 03:06:37;;;;;;;;;22.00;16.50;;;;;9.40;42.43;101822.31;5093599;27;45661;-69
2023/04/05 03:09:03;;;;;;;;;23.50;18.50;;;;;9.45;42.40;101820.69;5094834;27;45474;-68
2023/04/05 03:11:30;;;;;;;;;21.75;17.25;;;;;9.32;42.78;101825.66;5057192;28;45452;-66
2023/04/05 03:13:56;;;;;;;;;20.50;18.75;;;;;9.23;42.47;101820.19;5074267;27;45421;-67
2023/04/05 03:16:22;;;;;;;;;9.75;7.75;;;;;9.17;43.03;101822.63;5093407;27;45609;-67
2023/04/05 03:18:50;;;;;;;;;26.50;24.25;;;;;9.10;42.83;101816.34;5093903;27;45481;-67
2023/04/05 03:21:16;;;;;;;;;27.25;21.75;;;;;8.90;43.16;101813.25;5076942;27;45754;-66
2023/04/05 03:23:45;;;;;;;;;21.00;15.75;;;;;8.77;42.99;101831.16;5098620;27;45298;-67
2023/04/05 03:26:11;;;;;;;;;24.50;16.75;;;;;8.64;43.53;101820.38;5093373;27;45555;-67
2023/04/05 03:28:37;;;;;;;;;24.50;18.50;;;;;8.63;43.58;101821.22;5082295;27;45432;-67
2023/04/05 03:31:03;;;;;;;;;23.50;19.75;;;;;8.65;43.57;101829.09;5098225;27;45381;-68
2023/04/05 03:33:28;;;;;;;;;25.00;21.25;;;;;8.67;43.32;101828.31;5098934;27;45410;-70
2023/04/05 03:35:54;;;;;;;;;23.00;19.25;;;;;8.65;42.89;101824.75;5079695;27;45516;-68
2023/04/05 03:38:20;;;;;;;;;27.00;22.50;;;;;8.67;42.84;101825.69;5098062;27;45560;-68
2023/04/05 03:40:45;;;;;;;;;25.00;23.00;;;;;8.61;43.28;101819.41;5076818;27;45464;-68
2023/04/05 03:43:11;;;;;;;;;24.75;19.75;;;;;8.54;43.53;101814.84;5093925;27;45386;-68
2023/04/05 03:45:37;;;;;;;;;27.00;24.00;;;;;8.39;43.55;101823.13;5067143;27;46576;-68
2023/04/05 03:48:03;;;;;;;;;21.75;19.50;;;;;8.24;43.86;101818.34;5087593;27;45312;-69
2023/04/05 03:50:28;;;;;;;;;26.75;19.25;;;;;8.17;44.53;101825.13;5094215;27;45444;-67
2023/04/05 03:52:54;;;;;;;;;32.25;25.25;;;;;8.14;44.25;101817.22;5093967;27;45513;-65
2023/04/05 03:55:19;;;;;;;;;19.75;17.25;;;;;8.13;44.54;101806.72;5099532;27;45437;-66
2023/04/05 03:57:46;;;;;;;;;21.25;18.00;;;;;8.27;44.28;101824.53;5101801;27;45525;-68
2023/04/05 04:00:16;;;;;;;;;24.50;22.50;;;;;8.25;44.49;101831.44;5082288;27;45396;-68
2023/04/05 04:02:46;;;;;;;;;24.00;20.25;;;;;8.22;44.20;101825.25;5087524;27;45468;-67
2023/04/05 04:05:13;;;;;;;;;16.50;15.00;;;;;8.21;44.41;101813.03;5079000;27;47047;-67
2023/04/05 04:07:40;;;;;;;;;27.75;20.25;;;;;8.41;43.93;101826.69;5099631;27;45333;-68
2023/04/05 04:10:07;;;;;;;;;28.50;23.25;;;;;8.44;44.30;101826.78;5101696;27;45397;-69
2023/04/05 04:12:33;;;;;;;;;17.75;16.25;;;;;8.51;43.89;101825.22;5096336;27;45464;-69
2023/04/05 04:14:59;;;;;;;;;24.25;17.75;;;;;8.48;43.91;101819.06;5079102;27;47453;-70
2023/04/05 04:17:30;;;;;;;;;21.75;19.75;;;;;8.54;44.12;101812.25;5096024;27;45603;-67
2023/04/05 04:19:56;;;;;;;;;24.75;17.00;;;;;8.62;43.81;101814.25;5081213;27;45416;-69
2023/04/05 04:22:25;;;;;;;;;21.00;16.75;;;;;8.67;43.45;101814.38;5083269;27;45246;-67
2023/04/05 04:24:52;;;;;;;;;22.25;19.75;;;;;8.76;43.16;101821.56;5079229;27;47893;-67
2023/04/05 04:27:19;;;;;;;;;28.75;24.00;;;;;8.68;43.49;101818.72;5078317;27;45772;-68
2023/04/05 04:29:46;;;;;;;;;24.25;21.00;;;;;8.53;43.74;101805.28;5082661;27;45410;-67
2023/04/05 04:32:15;;;;;;;;;22.50;20.25;;;;;8.38;43.79;101796.13;5099504;27;45355;-68
2023/04/05 04:34:45;;;;;;;;;21.75;19.00;;;;;8.45;43.95;101818.13;5078197;27;45873;-67
2023/04/05 04:37:16;;;;;;;;;19.25;18.50;;;;;8.47;44.56;101821.63;5096747;27;45328;-68
2023/04/05 04:39:46;;;;;;;;;28.25;23.00;;;;;8.53;43.97;101811.38;5096885;27;45459;-68
2023/04/05 04:42:11;;;;;;;;;17.00;15.75;;;;;8.59;44.16;101813.25;5100217;27;45762;-67
2023/04/05 04:44:38;;;;;;;;;25.75;19.25;;;;;8.67;43.88;101809.13;5096261;27;45481;-70
2023/04/05 04:47:11;;;;;;;;;20.50;18.00;;;;;8.72;43.68;101806.66;5098780;27;45507;-66
2023/04/05 04:49:37;;;;;;;;;22.50;19.75;;;;;8.78;43.58;101810.31;5100740;27;45436;-69
2023/04/05 04:52:03;;;;;;;;;22.75;19.75;;;;;8.84;43.71;101804.34;5087320;27;45380;-68
2023/04/05 04:54:28;;;;;;;;;26.75;23.75;;;;;8.83;43.40;101810.44;5097031;27;45638;-66
2023/04/05 04:56:54;;;;;;;;;26.75;20.25;;;;;8.77;43.73;101805.03;5099424;27;45378;-68
2023/04/05 04:59:20;;;;;;;;;24.00;20.00;;;;;8.76;43.79;101808.50;5099236;27;45416;-68
2023/04/05 05:01:45;;;;;;;;;31.25;22.75;;;;;8.73;44.08;101801.44;5096651;27;45721;-68
2023/04/05 05:04:11;;;;;;;;;25.50;22.25;;;;;8.75;44.68;101810.22;5078166;27;47211;-68
2023/04/05 05:06:37;;;;;;;;;27.75;25.50;;;;;8.75;44.74;101811.94;5098656;27;45454;-69
2023/04/05 05:09:02;;;;;;;;;31.75;27.50;;;;;8.67;45.08;101796.97;5100329;27;45279;-68
2023/04/05 05:11:28;;;;;;;;;27.00;22.50;;;;;8.66;45.26;101789.97;5096953;27;45462;-69
2023/04/05 05:13:54;;;;;;;;;28.25;22.75;;;;;8.61;44.62;101775.00;5095616;27;45455;-68
2023/04/05 05:16:22;;;;;;;;;25.25;22.25;;;;;8.78;44.29;101792.03;5096448;27;45910;-68
2023/04/05 05:18:51;;;;;;;;;23.50;18.75;;;;;8.79;44.53;101793.78;5099345;27;45428;-68
2023/04/05 05:21:17;;;;;;;;;24.75;20.50;;;;;8.83;44.67;101794.78;5082101;27;45594;-67
2023/04/05 05:23:42;;;;;;;;;24.75;21.25;;;;;8.89;44.58;101801.00;5099549;27;46293;-68
2023/04/05 05:26:08;;;;;;;;;33.00;24.25;;;;;8.71;44.92;101795.31;5077382;27;45468;-68
2023/04/05 05:28:33;;;;;;;;;20.50;20.50;;;;;8.47;45.30;101761.56;5096347;27;45825;-67
2023/04/05 05:30:59;;;;;;;;;28.25;22.75;;;;;8.63;45.30;101792.50;5096748;27;45342;-66
2023/04/05 05:33:25;;;;;;;;;21.75;21.50;;;;;8.64;45.31;101811.69;5096282;27;46081;-69
2023/04/05 05:35:51;;;;;;;;;29.25;21.00;;;;;8.57;45.66;101799.28;5095933;27;45680;-68
2023/04/05 05:38:17;;;;;;;;;27.00;23.50;;;;;8.61;46.87;101796.81;5077289;27;45786;-68
2023/04/05 05:40:43;;;;;;;;;28.25;23.50;;;;;8.79;46.23;101804.22;5096110;27;45495;-67
2023/04/05 05:43:09;;;;;;;;;21.00;17.00;;;;;8.89;45.31;101800.13;5096907;27;45622;-66
2023/04/05 05:45:35;;;;;;;;;28.25;21.75;;;;;8.98;45.35;101802.97;5099755;27;45436;-69
2023/04/05 05:48:00;;;;;;;;;28.25;22.75;;;;;9.08;44.67;101812.81;5081606;27;45455;-68
2023/04/05 05:50:26;;;;;;;;;23.50;18.50;;;;;9.13;44.25;101799.88;5096927;27;45515;-67
2023/04/05 05:52:52;;;;;;;;;27.00;24.25;;;;;9.17;44.12;101795.63;5095485;27;45942;-69
2023/04/05 05:55:18;;;;;;;;;26.75;21.50;;;;;9.30;43.79;101795.03;5095288;27;45462;-70
2023/04/05 05:57:44;;;;;;;;;26.00;20.75;;;;;9.49;43.69;101804.22;5077239;27;45505;-68
2023/04/05 06:00:10;;;;;;;;;21.25;20.00;;;;;9.67;43.05;101782.84;5076358;27;45558;-68
2023/04/05 06:02:35;;;;;;;;;25.25;24.50;;;;;9.97;42.53;101788.75;5063564;27;46790;-68
2023/04/05 06:05:01;;;;;;;;;28.25;24.75;;;;;10.12;42.51;101801.28;5094587;27;45604;-67
2023/04/05 06:07:27;;;;;;;;;21.75;20.25;;;;;10.12;41.94;101803.00;5077316;27;45377;-68
2023/04/05 06:09:53;;;;;;;;;22.00;21.75;;;;;10.08;42.28;101786.34;5096893;27;45607;-69
2023/04/05 06:12:22;;;;;;;;;14.00;11.00;;;;;10.17;42.44;101797.00;5099212;27;45989;-67
2023/04/05 06:14:48;;;;;;;;;27.25;23.00;;;;;10.27;42.02;101808.53;5099941;27;45488;-68
2023/04/05 06:17:13;;;;;;;;;24.75;21.50;;;;;10.32;41.96;101804.34;5080851;27;45454;-68
2023/04/05 06:19:39;;;;;;;;;24.50;23.00;;;;;10.42;41.73;101809.75;5099425;27;45361;-67
2023/04/05 06:22:05;;;;;;;;;24.75;19.75;;;;;10.51;41.60;101804.69;5076521;27;47748;-68
2023/04/05 06:24:30;;;;;;;;;32.25;23.00;;;;;10.57;41.29;101807.44;5095360;27;45559;-68
2023/04/05 06:27:00;;;;;;;;;22.75;21.00;;;;;10.61;41.46;101804.03;5099741;27;45320;-70
2023/04/05 06:29:25;;;;;;;;;28.25;23.75;;;;;10.66;41.18;101801.50;5097007;27;45385;-68
2023/04/05 06:31:51;;;;;;;;;25.75;21.75;;;;;10.74;41.42;101813.00;5094847;27;46581;-68
2023/04/05 06:34:17;;;;;;;;;26.75;22.50;;;;;10.79;40.94;101813.94;5094891;27;45828;-67
2023/04/05 06:36:43;;;;;;;;;28.50;24.25;;;;;10.89;41.48;101820.25;5093377;27;45460;-69
2023/04/05 06:39:08;;;;;;;;;25.25;21.50;;;;;10.92;40.98;101817.69;5095428;27;45385;-67
2023/04/05 06:41:34;;;;;;;;;31.25;24.75;;;;;11.02;40.70;101820.50;5094617;27;45512;-68
2023/04/05 06:43:59;;;;;;;;;32.50;22.25;;;;;11.09;40.58;101820.59;5095397;27;45775;-68
2023/04/05 06:46:25;;;;;;;;;28.25;24.75;;;;;11.16;40.60;101827.72;5095012;27;45358;-67
2023/04/05 06:48:51;;;;;;;;;25.25;24.50;;;;;11.22;40.45;101812.97;5094613;27;45582;-68
2023/04/05 06:51:17;;;;;;;;;24.25;21.50;;;;;11.36;40.35;101825.41;5088138;27;46093;-70
2023/04/05 06:53:43;;;;;;;;;30.50;23.00;;;;;11.39;39.96;101813.25;5057185;28;45467;-69
2023/04/05 06:56:09;;;;;;;;;34.50;24.25;;;;;11.56;40.20;101829.25;5078772;27;45490;-67
2023/04/05 06:58:35;;;;;;;;;23.75;21.00;;;;;11.55;39.49;101809.09;5085490;27;45513;-70
2023/04/05 07:01:01;;;;;;;;;24.25;24.25;;;;;11.66;39.24;101818.03;5084180;27;45926;-68
2023/04/05 07:03:27;;;;;;;;;28.75;21.75;;;;;11.78;39.38;101826.94;5087748;27;45466;-67
2023/04/05 07:06:00;;;;;;;;;32.50;27.50;;;;;11.86;38.91;101820.03;5089004;27;45899;-68
2023/04/05 07:08:27;;;;;;;;;31.25;27.00;;;;;11.93;38.95;101827.19;5080179;27;45615;-68
2023/04/05 07:10:54;;;;;;;;;29.75;25.00;;;;;11.94;38.99;101815.84;5073489;27;47180;-69
2023/04/05 07:13:22;;;;;;;;;26.75;24.75;;;;;12.04;38.92;101817.72;5076691;27;45492;-68
2023/04/05 07:15:48;;;;;;;;;28.25;22.75;;;;;12.11;38.42;101823.94;5055921;27;45509;-69
2023/04/05 07:18:17;;;;;;;;;30.00;27.50;;;;;12.17;38.68;101831.91;5084159;27;45418;-67
2023/04/05 07:20:47;;;;;;;;;46.50;32.50;;;;;12.21;38.54;101827.56;5074598;27;46199;-66
2023/04/05 07:23:12;;;;;;;;;39.00;32.50;;;;;12.19;38.28;101829.28;5087573;27;46112;-66
2023/04/05 07:25:41;;;;;;;;;41.25;33.50;;;;;12.04;38.51;101827.34;5076434;27;45461;-67
2023/04/05 07:28:06;;;;;;;;;45.00;34.50;;;;;11.87;38.79;101838.50;5056738;28;45389;-69
2023/04/05 07:30:32;;;;;;;;;43.75;35.00;;;;;11.87;38.68;101835.00;5081142;27;46467;-67
2023/04/05 07:32:57;;;;;;;;;45.75;35.00;;;;;11.93;39.11;101845.56;5078587;27;45468;-68
2023/04/05 07:35:23;;;;;;;;;44.00;32.50;;;;;11.93;38.89;101842.06;5084759;27;45561;-68
2023/04/05 07:37:51;;;;;;;;;41.75;31.25;;;;;11.90;38.69;101815.78;5085215;27;45553;-69
2023/04/05 07:40:16;;;;;;;;;40.50;29.75;;;;;12.06;38.27;101820.38;5073698;27;46342;-68
2023/04/05 07:42:42;;;;;;;;;37.25;29.00;;;;;12.21;37.86;101830.19;5086088;27;45571;-66
2023/04/05 07:45:08;;;;;;;;;34.00;29.25;;;;;12.21;37.84;101814.41;5069339;28;45396;-68
2023/04/05 07:47:34;;;;;;;;;35.25;28.00;;;;;12.39;37.79;101833.03;5065229;27;45393;-68
2023/04/05 07:50:00;;;;;;;;;31.00;26.25;;;;;12.43;37.87;101829.59;5078504;27;46064;-68
2023/04/05 07:52:26;;;;;;;;;42.00;28.50;;;;;12.56;37.54;101822.72;5071451;27;45485;-68
2023/04/05 07:54:51;;;;;;;;;37.50;30.50;;;;;12.59;37.02;101820.13;5080718;27;45450;-67
2023/04/05 07:57:20;;;;;;;;;48.25;35.00;;;;;12.68;36.71;101825.47;5093683;27;45683;-68
2023/04/05 07:59:46;;;;;;;;;47.75;37.00;;;;;12.55;36.59;101813.06;5089492;27;46008;-68
2023/04/05 08:02:12;;;;;;;;;43.00;34.50;;;;;12.29;37.26;101820.63;5089798;27;45359;-68
2023/04/05 08:04:38;;;;;;;;;36.75;32.75;;;;;12.18;37.01;101796.00;5078560;27;45577;-68
2023/04/05 08:07:03;;;;;;;;;46.50;35.00;;;;;12.26;36.89;101807.47;5087882;27;45588;-69
2023/04/05 08:09:29;;;;;;;;;37.25;31.50;;;;;12.26;36.72;101816.22;5090781;27;46273;-67
2023/04/05 08:11:56;;;;;;;;;33.00;26.25;;;;;12.37;36.89;101816.38;5073991;27;45517;-68
2023/04/05 08:14:22;;;;;;;;;35.25;32.25;;;;;12.39;36.96;101822.53;5055315;28;45500;-69
2023/04/05 08:16:49;;;;;;;;;36.50;30.50;;;;;12.43;36.92;101812.94;5054835;28;45575;-69
2023/04/05 08:19:15;;;;;;;;;42.00;32.25;;;;;12.56;36.70;101813.97;5084028;27;46333;-69
2023/04/05 08:21:41;;;;;;;;;37.75;28.50;;;;;12.62;35.88;101809.63;5079683;27;45424;-68
2023/04/05 08:24:07;;;;;;;;;34.75;29.50;;;;;12.68;35.93;101819.34;5063495;27;45462;-68
2023/04/05 08:26:33;;;;;;;;;43.00;34.50;;;;;12.59;35.09;101814.88;5077269;27;45307;-71
2023/04/05 08:28:58;;;;;;;;;32.50;30.50;;;;;12.61;35.79;101833.28;5068280;27;45799;-68
2023/04/05 08:31:24;;;;;;;;;34.25;27.25;;;;;12.65;35.42;101833.34;5086629;27;45406;-67
2023/04/05 08:33:50;;;;;;;;;34.50;25.75;;;;;12.75;35.32;101822.94;5066475;27;45533;-68
2023/04/05 08:36:16;;;;;;;;;41.25;32.50;;;;;12.86;35.10;101831.78;5054849;28;45465;-67
2023/04/05 08:38:42;;;;;;;;;42.00;32.00;;;;;12.84;35.30;101818.66;5081513;27;45991;-69
2023/04/05 08:41:18;;;;;;;;;36.25;31.00;;;;;12.83;35.58;101805.47;5057040;27;45617;-70
2023/04/05 08:44:10;;;;;;;;;36.50;32.25;;;;;12.97;35.35;101818.75;5058105;28;45476;-68
2023/04/05 08:46:36;;;;;;;;;40.50;31.00;;;;;13.05;35.03;101822.31;5066129;27;45456;-68
2023/04/05 08:49:06;;;;;;;;;31.75;28.00;;;;;13.08;34.84;101825.00;5093881;27;46158;-70
2023/04/05 08:51:32;;;;;;;;;37.50;29.75;;;;;13.09;34.86;101814.47;5068316;27;45363;-71
2023/04/05 08:54:00;;;;;;;;;31.25;26.00;;;;;13.22;34.97;101831.28;5076402;27;45524;-68
2023/04/05 08:56:33;;;;;;;;;33.25;27.50;;;;;13.18;34.10;101816.31;5059500;27;45532;-67
2023/04/05 08:59:26;;;;;;;;;31.50;30.50;;;;;13.26;34.18;101834.78;5081244;27;46183;-70
2023/04/05 09:01:53;;;;;;;;;39.00;32.75;;;;;13.28;34.06;101827.84;5076541;27;45616;-69
2023/04/05 09:04:26;;;;;;;;;32.00;25.00;;;;;13.41;34.25;101831.47;5080001;27;45435;-67
2023/04/05 09:06:56;;;;;;;;;31.50;26.75;;;;;13.45;33.92;101823.56;5088629;27;45373;-67
2023/04/05 09:09:23;;;;;;;;;24.75;24.75;;;;;13.60;33.88;101827.22;5075660;27;46687;-68
2023/04/05 09:11:51;;;;;;;;;35.75;31.00;;;;;13.65;33.27;101829.00;5058053;27;45581;-66
2023/04/05 09:14:21;;;;;;;;;33.75;26.75;;;;;13.63;32.55;101821.97;5057346;28;45802;-67
2023/04/05 09:16:47;;;;;;;;;39.00;31.25;;;;;13.42;32.27;101776.19;5087830;27;46582;-69
2023/04/05 09:19:14;;;;;;;;;37.25;27.50;;;;;13.77;32.46;101821.16;5075738;28;46560;-68
2023/04/05 09:22:04;;;;;;;;;31.00;22.00;;;;;13.83;32.60;101829.97;5081423;27;46027;-68
2023/04/05 09:24:38;;;;;;;;;25.75;24.25;;;;;13.86;32.26;101825.63;5102682;27;45535;-68
2023/04/05 09:27:11;;;;;;;;;38.25;27.75;;;;;13.78;31.92;101824.69;5084007;27;45418;-68
2023/04/05 09:29:41;;;;;;;;;36.75;28.75;;;;;13.83;32.08;101817.69;5077689;27;45736;-68
2023/04/05 09:32:09;;;;;;;;;32.25;25.75;;;;;13.89;31.73;101822.13;5087863;27;45663;-67
2023/04/05 09:34:37;;;;;;;;;28.00;26.25;;;;;13.97;31.77;101818.63;5064230;27;45753;-68
2023/04/05 09:37:15;;;;;;;;;26.00;24.00;;;;;14.09;32.22;101819.56;5089681;27;45421;-67
2023/04/05 09:39:43;;;;;;;;;26.25;23.00;;;;;14.19;32.03;101822.28;5067500;27;46918;-67
2023/04/05 09:42:12;;;;;;;;;28.00;25.25;;;;;14.29;31.28;101815.28;5105385;27;45409;-69
2023/04/05 09:44:52;;;;;;;;;32.50;24.75;;;;;14.40;31.79;101816.22;5099233;27;45547;-68
2023/04/05 09:47:19;;;;;;;;;33.00;26.75;;;;;14.47;30.41;101806.53;5087013;27;46029;-68
2023/04/05 09:49:45;;;;;;;;;31.00;24.50;;;;;14.51;30.49;101808.31;5084020;27;46366;-67
2023/04/05 09:52:37;;;;;;;;;30.00;23.25;;;;;14.57;30.77;101810.16;5090373;27;45348;-69
2023/04/05 09:55:05;;;;;;;;;33.75;26.00;;;;;14.63;30.88;101807.50;5070630;27;45566;-69
2023/04/05 09:57:35;;;;;;;;;34.25;27.25;;;;;14.66;30.40;101794.31;5091488;27;45510;-69
2023/04/05 10:00:01;;;;;;;;;38.25;33.00;;;;;14.55;29.90;101799.59;5089540;27;46209;-68
2023/04/05 10:02:37;;;;;;;;;38.75;31.00;;;;;14.34;30.15;101800.38;5071863;28;45366;-67
2023/04/05 10:05:07;;;;;;;;;28.00;27.75;;;;;14.22;30.01;101789.78;5070325;27;45338;-68
2023/04/05 10:07:33;;;;;;;;;36.75;32.00;;;;;14.31;30.24;101808.28;5064797;27;45887;-68
2023/04/05 10:10:00;;;;;;;;;30.75;26.25;;;;;14.44;30.50;101801.28;5085333;27;45485;-70
2023/04/05 10:12:27;;;;;;;;;23.50;16.00;;;;;14.63;30.56;101803.09;5082770;27;45524;-68
2023/04/05 10:14:56;;;;;;;;;30.25;29.00;;;;;14.81;30.78;101799.66;5070595;27;45596;-71
2023/04/05 10:17:36;;;;;;;;;26.50;23.25;;;;;14.96;30.09;101790.84;5074051;27;45357;-68
2023/04/05 10:20:13;;;;;;;;;27.50;23.00;;;;;15.16;29.55;101797.91;5069187;27;46871;-68
2023/04/05 10:22:56;;;;;;;;;32.25;24.75;;;;;15.34;30.06;101794.38;5088907;27;45359;-69
2023/04/05 10:25:46;;;;;;;;;31.00;23.25;;;;;15.52;29.72;101790.81;5069870;27;45653;-68
2023/04/05 10:28:32;;;;;;;;;26.25;25.00;;;;;15.66;29.18;101779.38;5083465;27;45464;-68
2023/04/05 10:31:37;;;;;;;;;31.75;24.00;;;;;15.87;29.32;101788.13;5085328;27;46342;-69
2023/04/05 10:34:05;;;;;;;;;31.50;25.75;;;;;15.98;28.49;101774.91;5083543;27;45446;-69
2023/04/05 10:36:48;;;;;;;;;26.00;23.50;;;;;16.15;28.55;101772.19;5061129;27;45432;-69
2023/04/05 10:39:38;;;;;;;;;33.00;25.50;;;;;16.28;28.29;101764.19;5073932;27;45411;-70
2023/04/05 10:42:20;;;;;;;;;33.00;27.00;;;;;16.44;27.81;101769.38;5062791;28;46318;-70
2023/04/05 10:44:52;;;;;;;;;28.00;25.25;;;;;16.52;27.12;101752.59;5090139;27;45433;-69
2023/04/05 10:47:18;;;;;;;;;35.50;29.50;;;;;16.66;27.58;101762.22;5094949;27;45447;-69
2023/04/05 10:49:52;;;;;;;;;31.75;29.75;;;;;16.71;27.15;101749.84;5095200;27;45843;-67
2023/04/05 10:52:19;;;;;;;;;36.50;29.75;;;;;16.67;27.43;101748.09;5081877;27;46780;-70
2023/04/05 10:54:47;;;;;;;;;42.50;33.75;;;;;16.62;26.61;101752.53;5099061;27;45412;-68
2023/04/05 10:57:13;;;;;;;;;27.75;26.50;;;;;16.73;27.92;101751.56;5080661;27;45535;-68
2023/04/05 10:59:42;;;;;;;;;35.75;27.50;;;;;16.89;26.91;101755.00;5087061;27;45409;-68
2023/04/05 11:02:08;;;;;;;;;26.00;18.50;;;;;17.04;27.08;101747.84;5091108;27;46379;-70
2023/04/05 11:04:34;;;;;;;;;35.50;26.75;;;;;17.13;26.19;101747.72;5075070;27;45713;-68
2023/04/05 11:07:13;;;;;;;;;38.00;28.75;;;;;17.18;25.83;101748.59;5075741;27;45526;-66
2023/04/05 11:10:14;;;;;;;;;43.25;30.75;;;;;16.97;25.05;101711.75;5076501;27;45528;-71
2023/04/05 11:12:45;;;;;;;;;29.25;26.25;;;;;17.21;25.79;101731.81;5071153;27;46194;-69
2023/04/05 11:15:30;;;;;;;;;33.50;25.25;;;;;17.39;25.96;101736.88;5098806;27;45445;-70
2023/04/05 11:18:04;;;;;;;;;34.25;27.25;;;;;17.59;26.10;101742.00;5084576;27;45469;-69